Talagante, Chile
Current Conditions -  °F | °C
As of 8:00 PM on Wednesday 28 Jan 2015 (Local Time) from SCTB Reporting Station
Clear Clear  
Wind Chill: 81°   Ceiling: Unl
Heat Index: 81°   Visibility: 6mi
Dew Point: 54°   Wind: 6mph
Humidity: 39%   Direction: 230°SW
Pressure: 29.97"   Gusts: NA
Location:  33.4°S, 70.5°W
Report Text: SCTB 290000Z 23005KT CAVOK 27/12 Q1015
Loading
Personal Weather Stations






























Interactive Weather Map New forecast layout! Learn more

10-Day Weather Forecast

Advertisements
Track Severe Weather on mobile